Time;durP1;ratioP1;P1;durP2;ratioP2;P2;SDS_P1;SDS_P2;PMS_P1;PMS_P2;Temp;Humidity;BMP_temperature;BMP_pressure;BME280_temperature;BME280_humidity;BME280_pressure;Samples;Min_cycle;Max_cycle;Signal;HPM_P1;HPM_P2
2021/05/12 00:00:07;;;;;;;6.40;5.13;;;15.80;99.90;;;;;;5011024;28;20483;-67
2021/05/12 00:02:35;;;;;;;5.70;5.20;;;15.60;99.90;;;;;;5010668;28;20466;-67
2021/05/12 00:05:03;;;;;;;5.70;4.10;;;15.50;99.90;;;;;;5010920;28;20456;-66
2021/05/12 00:07:31;;;;;;;6.23;4.40;;;15.30;99.90;;;;;;5011070;28;20391;-67
2021/05/12 00:09:58;;;;;;;6.17;4.03;;;15.40;99.90;;;;;;5010878;28;20467;-67
2021/05/12 00:12:26;;;;;;;4.90;4.40;;;15.40;99.90;;;;;;5010737;28;21031;-67
2021/05/12 00:14:54;;;;;;;6.73;5.23;;;15.40;99.90;;;;;;5010552;28;20441;-67
2021/05/12 00:17:22;;;;;;;5.30;4.80;;;15.60;99.90;;;;;;5010756;28;20519;-67
2021/05/12 00:19:55;;;;;;;5.60;5.00;;;15.60;99.90;;;;;;5009382;28;20408;-66
2021/05/12 00:22:35;;;;;;;5.20;4.03;;;15.80;99.90;;;;;;5010549;28;20958;-67
2021/05/12 00:25:05;;;;;;;5.63;5.13;;;15.90;99.90;;;;;;5010554;28;20913;-67
2021/05/12 00:27:33;;;;;;;4.73;4.20;;;15.80;99.90;;;;;;5011009;28;20407;-67
2021/05/12 00:30:01;;;;;;;5.47;4.97;;;15.80;99.90;;;;;;5010962;28;20456;-68
2021/05/12 00:32:29;;;;;;;7.53;4.77;;;15.60;99.90;;;;;;5010759;28;20516;-68
2021/05/12 00:34:57;;;;;;;5.43;4.50;;;15.50;99.90;;;;;;5009389;28;20408;-68
2021/05/12 00:37:24;;;;;;;5.57;4.50;;;15.50;99.90;;;;;;5010826;28;20591;-68
2021/05/12 00:39:52;;;;;;;5.33;4.53;;;15.40;99.90;;;;;;5011225;28;20396;-69
2021/05/12 00:42:20;;;;;;;6.53;5.43;;;15.20;99.90;;;;;;5010915;28;20762;-67
2021/05/12 00:44:47;;;;;;;7.47;5.70;;;15.20;99.90;;;;;;5010871;28;20799;-68
2021/05/12 00:47:15;;;;;;;4.93;4.43;;;15.30;99.90;;;;;;5010884;28;20855;-66
2021/05/12 00:49:43;;;;;;;6.70;5.07;;;15.10;99.90;;;;;;5010978;28;20813;-67
2021/05/12 00:52:11;;;;;;;5.80;4.27;;;15.40;99.90;;;;;;5010520;28;20489;-67
2021/05/12 00:54:39;;;;;;;8.73;6.90;;;15.50;99.90;;;;;;5010720;28;20808;-67
2021/05/12 00:57:06;;;;;;;8.73;7.23;;;15.40;99.90;;;;;;5010755;28;20786;-67
2021/05/12 00:59:34;;;;;;;8.30;7.47;;;15.10;99.90;;;;;;5009121;28;20440;-67
2021/05/12 01:02:04;;;;;;;8.37;6.63;;;14.90;99.90;;;;;;5010260;28;20430;-68
2021/05/12 01:04:32;;;;;;;7.43;5.23;;;14.70;99.90;;;;;;5010454;28;20404;-68
2021/05/12 01:07:00;;;;;;;6.53;5.57;;;14.70;99.90;;;;;;5010661;28;20396;-68
2021/05/12 01:09:28;;;;;;;10.00;6.73;;;14.90;99.90;;;;;;5011339;28;20425;-68
2021/05/12 01:11:56;;;;;;;7.70;5.67;;;14.90;99.90;;;;;;5010696;28;20445;-68
2021/05/12 01:14:25;;;;;;;7.73;5.00;;;14.70;99.90;;;;;;5013457;28;20427;-69
2021/05/12 01:16:53;;;;;;;5.20;4.70;;;14.70;99.90;;;;;;5014746;28;20488;-68
2021/05/12 01:19:22;;;;;;;7.80;5.80;;;14.60;99.90;;;;;;5014651;28;20427;-68
2021/05/12 01:21:51;;;;;;;5.77;5.00;;;14.70;99.90;;;;;;5014466;28;20399;-68
2021/05/12 01:24:20;;;;;;;5.10;4.60;;;14.50;99.90;;;;;;5014411;28;20392;-67
2021/05/12 01:26:48;;;;;;;6.57;4.43;;;14.80;99.90;;;;;;5014854;28;20402;-67
2021/05/12 01:29:15;;;;;;;4.47;4.07;;;14.70;99.90;;;;;;5014220;28;20425;-67
2021/05/12 01:31:45;;;;;;;6.43;5.60;;;14.60;99.90;;;;;;5014002;28;20485;-67
2021/05/12 01:34:16;;;;;;;8.77;5.70;;;14.50;99.90;;;;;;5014150;28;20413;-66
2021/05/12 01:36:45;;;;;;;8.43;4.97;;;14.50;99.90;;;;;;5014041;28;20463;-66
2021/05/12 01:39:16;;;;;;;9.20;4.87;;;14.50;99.90;;;;;;5014277;28;20409;-67
2021/05/12 01:41:44;;;;;;;5.90;5.30;;;14.70;99.90;;;;;;5013922;28;20425;-67
2021/05/12 01:44:13;;;;;;;7.67;6.60;;;14.80;99.90;;;;;;5013886;28;20403;-67
2021/05/12 01:46:42;;;;;;;5.50;4.93;;;15.00;99.90;;;;;;5014019;28;20413;-67
2021/05/12 01:49:11;;;;;;;4.93;4.50;;;14.90;99.90;;;;;;5013884;28;20396;-66
2021/05/12 01:51:39;;;;;;;10.90;4.83;;;14.80;99.90;;;;;;5013565;28;20521;-67
2021/05/12 01:54:09;;;;;;;10.50;5.20;;;14.60;99.90;;;;;;5013648;28;20417;-68
2021/05/12 01:56:39;;;;;;;4.33;3.93;;;14.60;99.90;;;;;;5014059;28;20559;-67
2021/05/12 01:59:07;;;;;;;5.83;4.60;;;14.60;99.90;;;;;;5013717;28;20428;-67
2021/05/12 02:01:35;;;;;;;6.17;4.70;;;14.60;99.90;;;;;;5013314;28;20439;-67
2021/05/12 02:04:04;;;;;;;6.50;5.30;;;14.70;99.90;;;;;;5013484;28;20446;-67
2021/05/12 02:06:32;;;;;;;4.50;4.10;;;14.70;99.90;;;;;;5013943;28;20409;-67
2021/05/12 02:09:00;;;;;;;6.27;5.27;;;14.80;99.90;;;;;;5013376;28;20443;-68
2021/05/12 02:11:28;;;;;;;4.07;3.63;;;14.90;99.90;;;;;;5011604;28;20433;-68
2021/05/12 02:13:57;;;;;;;6.20;4.93;;;14.80;99.90;;;;;;5013053;28;20437;-67
2021/05/12 02:16:24;;;;;;;12.77;5.07;;;14.80;99.90;;;;;;5012727;28;20422;-68
2021/05/12 02:18:53;;;;;;;5.70;4.17;;;14.50;99.90;;;;;;5013372;28;20406;-68
2021/05/12 02:21:20;;;;;;;9.67;5.67;;;14.40;99.90;;;;;;5013214;28;20396;-68
2021/05/12 02:23:48;;;;;;;5.40;4.37;;;14.30;99.90;;;;;;5012653;28;20445;-68
2021/05/12 02:26:16;;;;;;;4.00;3.60;;;14.20;99.90;;;;;;5013160;28;20384;-69
2021/05/12 02:28:43;;;;;;;6.77;5.07;;;14.10;99.90;;;;;;5013157;28;20388;-68
2021/05/12 02:31:12;;;;;;;5.70;4.33;;;14.10;99.90;;;;;;5012828;28;20402;-69
2021/05/12 02:33:39;;;;;;;5.00;4.43;;;14.10;99.90;;;;;;5012959;28;20416;-68
2021/05/12 02:36:07;;;;;;;4.27;3.40;;;14.00;99.90;;;;;;5013067;28;20454;-68
2021/05/12 02:38:35;;;;;;;8.40;5.00;;;13.90;99.90;;;;;;5012722;28;20974;-68
2021/05/12 02:41:03;;;;;;;5.33;4.50;;;14.00;99.90;;;;;;5012608;28;20432;-67
2021/05/12 02:43:31;;;;;;;7.57;4.17;;;13.90;99.90;;;;;;5012573;28;20453;-67
2021/05/12 02:45:58;;;;;;;6.43;4.83;;;14.20;99.90;;;;;;5012489;28;20391;-67
2021/05/12 02:48:27;;;;;;;6.80;4.37;;;14.30;99.90;;;;;;5012806;28;20400;-67
2021/05/12 02:50:54;;;;;;;4.60;3.43;;;14.40;99.90;;;;;;5012231;28;20837;-67
2021/05/12 02:53:22;;;;;;;5.10;3.47;;;14.40;99.90;;;;;;5012296;28;20468;-68
2021/05/12 02:55:50;;;;;;;7.80;3.70;;;14.50;99.90;;;;;;5012223;28;20398;-68
2021/05/12 02:58:18;;;;;;;3.90;3.50;;;14.30;99.90;;;;;;5012355;28;20814;-68
2021/05/12 03:00:46;;;;;;;4.23;3.80;;;14.60;99.90;;;;;;5012314;28;20418;-67
2021/05/12 03:03:13;;;;;;;4.63;3.37;;;14.80;99.90;;;;;;5012172;28;20800;-68
2021/05/12 03:05:42;;;;;;;3.53;3.20;;;15.00;99.90;;;;;;5010994;28;20429;-68
2021/05/12 03:08:10;;;;;;;5.83;3.60;;;15.00;99.90;;;;;;5012568;28;20425;-68
2021/05/12 03:10:39;;;;;;;11.17;4.80;;;14.80;99.90;;;;;;5012584;28;20479;-68
2021/05/12 03:13:08;;;;;;;5.00;4.17;;;14.70;99.90;;;;;;5013281;28;20423;-67
2021/05/12 03:15:36;;;;;;;5.47;4.03;;;14.70;99.90;;;;;;5013496;28;20411;-68
2021/05/12 03:18:06;;;;;;;4.70;3.77;;;14.70;99.90;;;;;;5012667;28;20443;-67
2021/05/12 03:20:34;;;;;;;4.10;3.70;;;14.70;99.90;;;;;;5014058;28;20418;-66
2021/05/12 03:23:03;;;;;;;6.83;3.10;;;14.60;99.90;;;;;;5013503;28;20423;-67
2021/05/12 03:25:31;;;;;;;4.17;3.77;;;14.80;99.90;;;;;;5014216;28;20819;-67
2021/05/12 03:27:58;;;;;;;4.53;3.67;;;14.50;99.90;;;;;;5015150;28;20832;-67
2021/05/12 03:30:29;;;;;;;4.03;3.60;;;14.10;99.90;;;;;;5013003;28;20443;-68
2021/05/12 03:32:58;;;;;;;7.57;3.40;;;14.00;99.90;;;;;;5013942;28;20993;-68
2021/05/12 03:35:26;;;;;;;5.53;3.30;;;14.10;99.90;;;;;;5011078;28;20384;-67
2021/05/12 03:37:56;;;;;;;4.07;3.63;;;14.20;99.90;;;;;;5011700;28;20424;-67
2021/05/12 03:40:26;;;;;;;4.67;3.87;;;14.10;99.90;;;;;;5011654;28;20392;-67
2021/05/12 03:42:53;;;;;;;6.63;3.33;;;14.10;99.90;;;;;;5011206;28;20798;-69
2021/05/12 03:45:21;;;;;;;5.50;2.60;;;14.20;99.90;;;;;;5011282;28;20684;-69
2021/05/12 03:47:49;;;;;;;4.33;3.10;;;14.30;99.90;;;;;;5010032;28;20763;-68
2021/05/12 03:50:19;;;;;;;2.63;2.43;;;14.10;99.90;;;;;;5011474;28;20383;-67
2021/05/12 03:52:47;;;;;;;4.63;4.23;;;14.30;99.90;;;;;;5011211;28;20415;-67
2021/05/12 03:55:16;;;;;;;3.93;2.90;;;14.50;99.90;;;;;;5011203;28;20384;-68
2021/05/12 03:57:45;;;;;;;4.40;2.97;;;14.30;99.90;;;;;;5011120;28;20796;-68
2021/05/12 04:00:14;;;;;;;3.50;3.20;;;14.30;99.90;;;;;;5011383;28;20384;-67
2021/05/12 04:02:43;;;;;;;6.87;3.47;;;14.20;99.90;;;;;;5010869;28;20442;-68
2021/05/12 04:05:14;;;;;;;3.87;3.07;;;14.20;99.90;;;;;;5010923;28;20402;-68
2021/05/12 04:07:47;;;;;;;3.70;2.23;;;14.10;99.90;;;;;;5011069;28;20431;-68
2021/05/12 04:10:16;;;;;;;3.80;2.90;;;13.90;99.90;;;;;;5010939;28;20801;-68
2021/05/12 04:12:45;;;;;;;5.10;2.93;;;13.80;99.90;;;;;;5010728;28;20423;-68
2021/05/12 04:15:13;;;;;;;4.23;2.90;;;14.10;99.90;;;;;;5010851;28;20494;-68
2021/05/12 04:17:40;;;;;;;5.40;2.87;;;14.10;99.90;;;;;;5011185;28;20801;-68
2021/05/12 04:20:12;;;;;;;4.10;2.80;;;14.10;99.90;;;;;;5010964;28;20421;-68
2021/05/12 04:22:40;;;;;;;4.17;3.00;;;14.30;99.90;;;;;;5010634;28;20995;-68
2021/05/12 04:25:11;;;;;;;2.30;2.07;;;14.20;99.90;;;;;;5010801;28;20449;-69
2021/05/12 04:27:39;;;;;;;3.00;2.50;;;14.20;99.90;;;;;;5011237;28;20425;-69
2021/05/12 04:30:11;;;;;;;4.90;3.30;;;14.50;99.90;;;;;;5011028;28;20471;-69
2021/05/12 04:32:40;;;;;;;2.80;2.23;;;14.40;99.90;;;;;;5010930;28;20424;-69
2021/05/12 04:35:09;;;;;;;2.80;2.33;;;14.60;99.90;;;;;;5010743;28;20527;-69
2021/05/12 04:37:36;;;;;;;3.03;2.50;;;14.80;99.90;;;;;;5009675;28;20467;-69
2021/05/12 04:40:07;;;;;;;4.50;3.43;;;14.70;99.90;;;;;;5011237;28;20472;-69
2021/05/12 04:42:35;;;;;;;3.50;2.63;;;14.40;99.90;;;;;;5010692;28;20523;-69
2021/05/12 04:45:03;;;;;;;5.10;2.93;;;14.40;99.90;;;;;;5009443;28;20412;-67
2021/05/12 04:47:32;;;;;;;4.13;2.87;;;14.30;99.90;;;;;;5017476;28;20877;-69
2021/05/12 04:50:00;;;;;;;3.10;2.80;;;14.00;99.90;;;;;;5018376;28;20426;-68
2021/05/12 04:52:29;;;;;;;2.77;2.47;;;14.30;99.90;;;;;;5017144;28;20415;-69
2021/05/12 04:54:56;;;;;;;3.57;2.90;;;14.60;99.90;;;;;;5017717;28;20801;-69
2021/05/12 04:57:24;;;;;;;2.77;2.53;;;14.70;99.90;;;;;;5017532;28;20407;-68
2021/05/12 04:59:52;;;;;;;3.50;3.10;;;14.70;99.90;;;;;;5017610;28;20475;-68
2021/05/12 05:02:20;;;;;;;3.83;3.43;;;14.70;99.90;;;;;;5016649;28;20446;-68
2021/05/12 05:04:48;;;;;;;3.10;2.80;;;14.90;99.90;;;;;;5017212;28;20416;-69
2021/05/12 05:07:16;;;;;;;4.00;3.17;;;14.80;99.90;;;;;;5017323;28;20520;-68
2021/05/12 05:09:43;;;;;;;5.00;3.40;;;14.50;99.90;;;;;;5017338;28;20380;-70
2021/05/12 05:12:11;;;;;;;3.40;3.10;;;14.60;99.90;;;;;;5017017;28;20447;-70
2021/05/12 05:14:39;;;;;;;2.90;2.60;;;14.60;99.90;;;;;;5016903;28;20413;-70
2021/05/12 05:17:07;;;;;;;5.53;3.33;;;15.00;99.90;;;;;;5017280;28;20478;-69
2021/05/12 05:19:34;;;;;;;6.63;2.63;;;15.00;99.90;;;;;;5017076;28;20423;-69
2021/05/12 05:22:04;;;;;;;6.23;3.27;;;14.90;99.90;;;;;;5016710;28;20423;-69
2021/05/12 05:24:31;;;;;;;3.40;2.67;;;14.70;99.90;;;;;;5016871;28;20417;-68
2021/05/12 05:26:59;;;;;;;4.63;3.37;;;14.20;99.90;;;;;;5009701;28;20393;-68
2021/05/12 05:29:27;;;;;;;6.73;3.33;;;14.00;99.90;;;;;;5011298;28;20943;-68
2021/05/12 05:31:54;;;;;;;6.20;3.80;;;14.00;99.90;;;;;;5016293;28;20454;-67
2021/05/12 05:34:46;;;;;;;3.57;2.77;;;14.00;99.90;;;;;;4984170;28;20468;-68
2021/05/12 05:37:34;;;;;;;4.90;3.37;;;14.10;99.90;;;;;;5006504;28;20435;-67
2021/05/12 05:40:20;;;;;;;3.63;3.27;;;14.30;99.90;;;;;;5016605;28;20435;-67
2021/05/12 05:43:08;;;;;;;3.50;2.70;;;14.20;99.90;;;;;;4996561;28;20427;-67
2021/05/12 05:45:55;;;;;;;3.30;3.00;;;14.50;99.90;;;;;;4996955;28;20432;-67
2021/05/12 05:48:41;;;;;;;4.07;2.57;;;14.70;99.90;;;;;;5005808;28;20398;-68
2021/05/12 05:51:32;;;;;;;7.10;3.00;;;14.70;99.90;;;;;;4992154;28;20429;-68
2021/05/12 05:54:19;;;;;;;3.90;3.40;;;14.50;99.90;;;;;;5016066;28;20398;-68
2021/05/12 05:57:07;;;;;;;3.83;2.80;;;14.40;99.90;;;;;;5016594;28;20395;-67
2021/05/12 05:59:53;;;;;;;3.67;3.00;;;14.20;99.90;;;;;;4994247;28;20472;-67
2021/05/12 06:02:39;;;;;;;4.83;3.73;;;14.10;99.90;;;;;;4993213;28;20762;-67
2021/05/12 06:05:26;;;;;;;5.10;3.27;;;14.00;99.90;;;;;;4993924;28;20794;-68
2021/05/12 06:08:12;;;;;;;9.43;3.00;;;14.00;99.90;;;;;;4996687;28;20432;-67
2021/05/12 06:10:59;;;;;;;5.27;2.70;;;14.00;99.90;;;;;;4992972;28;20431;-68
2021/05/12 06:13:47;;;;;;;5.27;4.10;;;14.00;99.90;;;;;;4993383;28;20452;-68
2021/05/12 06:16:33;;;;;;;5.33;4.10;;;14.10;99.90;;;;;;4993432;28;20416;-68
2021/05/12 06:19:20;;;;;;;4.07;3.13;;;14.20;99.90;;;;;;5001618;28;20522;-68
2021/05/12 06:22:07;;;;;;;5.70;4.30;;;14.10;99.90;;;;;;5012471;28;20456;-69
2021/05/12 06:24:54;;;;;;;4.70;3.90;;;14.10;99.90;;;;;;5011268;28;20429;-68
2021/05/12 06:27:42;;;;;;;4.07;3.33;;;14.10;99.90;;;;;;4992740;28;20416;-68
2021/05/12 06:30:28;;;;;;;9.00;4.43;;;14.20;99.90;;;;;;4993035;28;20471;-67
2021/05/12 06:33:15;;;;;;;7.00;4.30;;;14.10;99.90;;;;;;4992616;28;20419;-68
2021/05/12 06:36:01;;;;;;;10.53;4.90;;;13.90;99.90;;;;;;4992841;28;20388;-68
2021/05/12 06:38:53;;;;;;;8.00;5.67;;;13.80;99.90;;;;;;4992666;28;20459;-68
2021/05/12 06:41:21;;;;;;;5.20;4.10;;;13.80;99.90;;;;;;4992562;28;20521;-68
2021/05/12 06:43:50;;;;;;;7.10;4.80;;;13.80;99.90;;;;;;4992561;28;20416;-68
2021/05/12 06:46:17;;;;;;;4.37;3.83;;;13.90;99.90;;;;;;4999389;28;20408;-70
2021/05/12 06:48:45;;;;;;;5.40;4.17;;;14.30;99.90;;;;;;5004559;28;20408;-68
2021/05/12 06:51:13;;;;;;;4.10;3.70;;;14.50;99.90;;;;;;4992445;28;20811;-68
2021/05/12 06:53:41;;;;;;;3.90;3.53;;;14.50;99.90;;;;;;4992008;28;20812;-68
2021/05/12 06:56:10;;;;;;;6.20;4.60;;;14.40;99.90;;;;;;4992259;28;20404;-68
2021/05/12 06:58:41;;;;;;;4.17;3.47;;;14.20;99.90;;;;;;4992124;28;20428;-68
2021/05/12 07:01:13;;;;;;;6.83;4.17;;;14.20;99.90;;;;;;4992194;28;20492;-68
2021/05/12 07:03:41;;;;;;;7.03;4.63;;;14.30;99.90;;;;;;4990861;28;20519;-68
2021/05/12 07:06:08;;;;;;;7.73;4.00;;;14.40;99.90;;;;;;4992397;28;20403;-68
2021/05/12 07:08:37;;;;;;;6.63;4.57;;;14.30;99.90;;;;;;4992711;28;20479;-67
2021/05/12 07:11:05;;;;;;;4.30;3.53;;;14.20;99.90;;;;;;4991998;28;20392;-69
2021/05/12 07:13:33;;;;;;;7.27;5.40;;;13.90;99.90;;;;;;4992226;28;20492;-68
2021/05/12 07:16:02;;;;;;;7.30;5.20;;;13.90;99.90;;;;;;4992250;28;20441;-67
2021/05/12 07:18:32;;;;;;;6.27;5.20;;;14.00;99.90;;;;;;4991496;28;20436;-67
2021/05/12 07:21:00;;;;;;;6.13;4.33;;;14.00;99.90;;;;;;4992516;28;20393;-69
2021/05/12 07:23:28;;;;;;;9.53;5.20;;;14.10;99.90;;;;;;4991631;28;20454;-68
2021/05/12 07:25:56;;;;;;;7.77;3.83;;;14.20;99.90;;;;;;5000485;28;20425;-68
2021/05/12 07:28:25;;;;;;;5.90;4.57;;;14.10;99.90;;;;;;5012120;28;21025;-69
2021/05/12 07:30:53;;;;;;;6.07;4.67;;;14.10;99.90;;;;;;5012260;28;20795;-68
2021/05/12 07:33:41;;;;;;;5.90;4.57;;;14.10;99.90;;;;;;5012257;28;20468;-67
2021/05/12 07:36:09;;;;;;;5.73;4.77;;;14.30;99.90;;;;;;5012065;28;20841;-70
2021/05/12 07:38:37;;;;;;;8.03;5.30;;;14.30;99.90;;;;;;5011558;28;20457;-68
2021/05/12 07:41:05;;;;;;;9.27;5.70;;;14.40;99.90;;;;;;5012066;28;20789;-69
2021/05/12 07:43:33;;;;;;;8.77;6.53;;;14.30;99.90;;;;;;5010266;28;20455;-69
2021/05/12 07:46:01;;;;;;;9.20;6.37;;;14.20;99.90;;;;;;5011070;28;20409;-70
2021/05/12 07:48:29;;;;;;;7.73;4.97;;;14.10;99.90;;;;;;5012106;28;20380;-69
2021/05/12 07:50:59;;;;;;;8.97;5.10;;;14.00;99.90;;;;;;5012197;28;20490;-69
2021/05/12 07:53:27;;;;;;;11.20;7.00;;;13.90;99.90;;;;;;5012936;28;20450;-69
2021/05/12 07:55:54;;;;;;;10.13;6.20;;;13.90;99.90;;;;;;5012482;28;20424;-69
2021/05/12 07:58:22;;;;;;;9.23;5.90;;;13.90;99.90;;;;;;5012133;28;20391;-69
2021/05/12 08:00:51;;;;;;;12.57;6.97;;;14.00;99.90;;;;;;5014428;28;20406;-69
2021/05/12 08:03:19;;;;;;;12.00;6.30;;;14.00;99.90;;;;;;5026403;28;20503;-69
2021/05/12 08:05:49;;;;;;;11.17;6.83;;;14.30;99.90;;;;;;5025903;28;20414;-69
2021/05/12 08:08:17;;;;;;;8.67;6.17;;;14.50;99.90;;;;;;5022638;28;20555;-69
2021/05/12 08:10:46;;;;;;;7.60;6.43;;;14.70;99.90;;;;;;5016988;28;20400;-69
2021/05/12 08:13:13;;;;;;;8.67;7.17;;;14.80;99.90;;;;;;5001391;28;20432;-69
2021/05/12 08:15:41;;;;;;;10.27;7.00;;;14.70;99.90;;;;;;5000886;28;20416;-68
2021/05/12 08:18:09;;;;;;;10.10;6.10;;;14.70;99.90;;;;;;5006480;28;20832;-69
2021/05/12 08:20:37;;;;;;;10.00;7.50;;;14.60;99.90;;;;;;5043381;22;20474;-71
2021/05/12 08:23:05;;;;;;;9.87;7.30;;;14.40;99.90;;;;;;5046718;28;20989;-72
2021/05/12 08:25:42;;;;;;;12.70;6.80;;;14.20;99.90;;;;;;5053500;28;20431;-71
2021/05/12 08:28:11;;;;;;;10.07;7.53;;;14.20;99.90;;;;;;5054830;28;20407;-72
2021/05/12 08:30:44;;;;;;;9.97;6.83;;;14.20;99.90;;;;;;5054904;28;20395;-72
2021/05/12 08:33:12;;;;;;;8.97;6.83;;;14.20;99.90;;;;;;5054647;28;20417;-72
2021/05/12 08:35:42;;;;;;;10.63;6.93;;;14.30;99.90;;;;;;5046996;28;21492;-72
2021/05/12 08:38:13;;;;;;;12.70;8.03;;;14.30;99.90;;;;;;5047220;28;20466;-73
2021/05/12 08:40:43;;;;;;;10.20;6.77;;;14.30;99.90;;;;;;5035504;28;20477;-73
2021/05/12 08:43:12;;;;;;;11.20;6.57;;;14.30;99.90;;;;;;5033394;28;20415;-71
2021/05/12 08:45:42;;;;;;;16.27;8.07;;;14.40;99.90;;;;;;5037105;28;20759;-73
2021/05/12 08:48:14;;;;;;;9.60;7.13;;;14.50;99.90;;;;;;5034553;28;20424;-71
2021/05/12 08:50:44;;;;;;;13.73;8.43;;;14.70;99.90;;;;;;5030599;28;20415;-72
2021/05/12 08:53:12;;;;;;;14.37;9.50;;;14.90;99.90;;;;;;5033985;28;20445;-70
2021/05/12 08:55:40;;;;;;;9.67;7.17;;;14.90;99.90;;;;;;5051511;28;20829;-72
2021/05/12 08:58:08;;;;;;;15.73;9.30;;;15.00;99.90;;;;;;5050683;28;20434;-70
2021/05/12 09:00:36;;;;;;;14.17;8.70;;;14.90;99.90;;;;;;5051725;28;20712;-70
2021/05/12 09:03:04;;;;;;;13.00;8.40;;;14.60;99.90;;;;;;5054118;28;20476;-73
2021/05/12 09:05:32;;;;;;;15.60;8.73;;;14.40;99.90;;;;;;5049692;28;20504;-71
2021/05/12 09:08:00;;;;;;;13.80;9.40;;;14.50;99.90;;;;;;5051693;28;20390;-70
2021/05/12 09:10:27;;;;;;;13.60;9.37;;;14.60;99.90;;;;;;5051289;28;20427;-71
2021/05/12 09:12:59;;;;;;;15.33;10.03;;;14.50;99.90;;;;;;5050252;28;20468;-70
2021/05/12 09:15:30;;;;;;;12.67;8.23;;;14.40;99.90;;;;;;5050749;28;20426;-70
2021/05/12 09:18:01;;;;;;;16.60;8.63;;;14.50;99.90;;;;;;5050008;28;20400;-71
2021/05/12 09:20:32;;;;;;;16.60;10.20;;;14.40;99.90;;;;;;5049824;28;20953;-71
2021/05/12 09:23:19;;;;;;;13.53;8.73;;;14.40;99.90;;;;;;5049925;28;20516;-70
2021/05/12 09:25:56;;;;;;;13.30;9.10;;;14.30;99.90;;;;;;5043162;28;20462;-71
2021/05/12 09:28:28;;;;;;;13.50;8.83;;;14.40;99.90;;;;;;5031135;28;20487;-71
2021/05/12 09:31:09;;;;;;;14.90;9.53;;;14.50;99.90;;;;;;5029946;28;20474;-72
2021/05/12 09:33:39;;;;;;;14.20;10.53;;;14.50;99.90;;;;;;5028442;28;20447;-73
2021/05/12 09:36:09;;;;;;;17.70;8.90;;;14.40;99.90;;;;;;5034115;28;20409;-71
2021/05/12 09:38:37;;;;;;;17.50;10.70;;;14.60;99.90;;;;;;5033492;28;20818;-71
2021/05/12 09:41:10;;;;;;;10.73;7.63;;;14.60;99.90;;;;;;5033389;28;20499;-72
2021/05/12 09:43:46;;;;;;;13.40;7.93;;;14.80;99.90;;;;;;5033826;28;20459;-71
2021/05/12 09:46:20;;;;;;;14.33;9.13;;;14.90;99.90;;;;;;5034032;28;20430;-71
2021/05/12 09:49:14;;;;;;;16.80;9.73;;;14.70;99.90;;;;;;5033603;28;20763;-72
2021/05/12 09:51:48;;;;;;;15.57;10.63;;;14.60;99.90;;;;;;5034232;28;20788;-71
2021/05/12 09:54:19;;;;;;;18.03;9.87;;;14.60;99.90;;;;;;5027771;28;20751;-71
2021/05/12 09:56:50;;;;;;;17.30;11.60;;;14.90;99.90;;;;;;5029903;28;20427;-71
2021/05/12 09:59:21;;;;;;;19.23;11.40;;;14.90;99.90;;;;;;5045081;28;20435;-71
2021/05/12 10:01:52;;;;;;;19.23;11.20;;;14.80;99.90;;;;;;5033019;28;20394;-70
2021/05/12 10:04:29;;;;;;;15.83;8.90;;;14.80;99.90;;;;;;5033301;28;20627;-72
2021/05/12 10:06:58;;;;;;;14.17;10.27;;;14.90;99.90;;;;;;5033599;28;20424;-71
2021/05/12 10:09:28;;;;;;;20.00;11.07;;;14.90;99.90;;;;;;5033443;28;20804;-70
2021/05/12 10:12:07;;;;;;;12.00;7.30;;;14.90;99.90;;;;;;5033415;28;20971;-73
2021/05/12 10:14:36;;;;;;;13.93;9.63;;;15.00;99.90;;;;;;5033808;28;20531;-73
2021/05/12 10:17:06;;;;;;;15.43;10.50;;;15.00;99.90;;;;;;5032192;28;20993;-70
2021/05/12 10:19:34;;;;;;;14.90;10.43;;;15.20;99.90;;;;;;5033425;28;20447;-73
2021/05/12 10:22:03;;;;;;;16.57;11.73;;;15.10;99.90;;;;;;5032267;28;20456;-71
2021/05/12 10:24:33;;;;;;;18.80;12.60;;;15.00;99.90;;;;;;5033659;28;20431;-71
2021/05/12 10:27:02;;;;;;;17.83;12.97;;;15.30;99.90;;;;;;5033690;28;20404;-71
2021/05/12 10:29:32;;;;;;;25.07;11.97;;;15.50;99.90;;;;;;5033898;28;20398;-71
2021/05/12 10:31:59;;;;;;;19.10;10.17;;;15.40;99.90;;;;;;5033416;28;20415;-70
2021/05/12 10:34:39;;;;;;;14.90;9.60;;;15.20;99.90;;;;;;5032174;28;20410;-72
2021/05/12 10:37:22;;;;;;;13.30;10.17;;;15.20;99.90;;;;;;5033391;28;20740;-71
2021/05/12 10:39:51;;;;;;;18.17;11.57;;;15.10;99.90;;;;;;5032926;28;20457;-72
2021/05/12 10:42:44;;;;;;;16.60;11.73;;;14.90;99.90;;;;;;5033496;28;20462;-72
2021/05/12 10:45:16;;;;;;;17.20;11.90;;;14.80;99.90;;;;;;5035765;28;20409;-73
2021/05/12 10:47:44;;;;;;;20.83;10.40;;;14.90;99.90;;;;;;5037191;28;20395;-71
2021/05/12 10:50:13;;;;;;;16.47;10.73;;;15.00;99.90;;;;;;5040816;28;20387;-71
2021/05/12 10:53:13;;;;;;;18.43;11.27;;;15.30;99.90;;;;;;5049017;28;20472;-71
2021/05/12 10:56:03;;;;;;;20.63;11.80;;;15.50;99.90;;;;;;5049508;28;20432;-70
2021/05/12 10:58:32;;;;;;;16.73;10.10;;;15.50;99.90;;;;;;5048824;28;20438;-72
2021/05/12 11:01:03;;;;;;;18.77;12.27;;;15.50;99.90;;;;;;5045194;28;20426;-72
2021/05/12 11:04:16;;;;;;;14.90;9.80;;;15.40;99.90;;;;;;5047575;28;20443;-71
2021/05/12 11:07:04;;;;;;;14.30;9.80;;;15.80;99.90;;;;;;5033203;28;20432;-72
2021/05/12 11:09:46;;;;;;;14.40;11.27;;;16.10;99.90;;;;;;5032505;28;20475;-73
2021/05/12 11:12:22;;;;;;;21.50;9.57;;;16.40;99.90;;;;;;5034513;28;20457;-71
2021/05/12 11:15:01;;;;;;;16.90;10.63;;;16.60;99.90;;;;;;5034958;28;20459;-72
2021/05/12 11:17:49;;;;;;;15.20;11.40;;;16.70;99.90;;;;;;5034374;28;20412;-71
2021/05/12 11:20:27;;;;;;;18.33;10.30;;;16.40;99.90;;;;;;5032630;28;20815;-71
2021/05/12 11:22:57;;;;;;;14.77;11.00;;;16.00;99.90;;;;;;5030770;28;20996;-71
2021/05/12 11:25:43;;;;;;;13.77;10.60;;;15.70;99.90;;;;;;5030680;28;20477;-72
2021/05/12 11:33:53;;;;;;;16.93;10.87;;;15.70;99.90;;;;;;5031542;28;20415;-70
2021/05/12 11:36:25;;;;;;;16.93;11.23;;;15.70;99.90;;;;;;5040041;28;20406;-71
2021/05/12 11:38:54;;;;;;;14.17;9.10;;;15.60;99.90;;;;;;5031885;28;20449;-73
2021/05/12 11:41:24;;;;;;;17.60;10.53;;;15.60;99.90;;;;;;5031684;28;20442;-71
2021/05/12 11:43:53;;;;;;;15.00;9.27;;;15.60;99.90;;;;;;5031610;28;20418;-71
2021/05/12 11:46:23;;;;;;;17.70;10.13;;;15.90;99.90;;;;;;5031966;28;20431;-72
2021/05/12 11:48:53;;;;;;;18.33;10.63;;;16.30;99.90;;;;;;5031680;28;20434;-70
2021/05/12 11:51:32;;;;;;;15.70;11.33;;;16.30;99.90;;;;;;5026684;28;20435;-72
2021/05/12 11:54:03;;;;;;;14.53;11.23;;;15.90;99.90;;;;;;5032373;28;20407;-71
2021/05/12 11:56:31;;;;;;;15.03;11.53;;;16.00;99.90;;;;;;5040010;28;20423;-69
2021/05/12 11:59:01;;;;;;;15.13;10.10;;;16.10;99.90;;;;;;5051116;28;20416;-73
2021/05/12 12:01:34;;;;;;;14.63;10.57;;;15.90;99.90;;;;;;5051004;28;20476;-70
2021/05/12 12:04:14;;;;;;;18.20;10.63;;;16.00;99.90;;;;;;5051341;28;20459;-72
2021/05/12 12:06:43;;;;;;;14.70;9.30;;;16.10;99.90;;;;;;5050038;28;20440;-71
2021/05/12 12:09:13;;;;;;;14.30;10.17;;;16.00;99.90;;;;;;5051180;28;20410;-71
2021/05/12 12:11:41;;;;;;;14.47;9.73;;;16.00;99.90;;;;;;5049728;28;20480;-72
2021/05/12 12:14:10;;;;;;;14.90;10.23;;;15.80;99.90;;;;;;5051049;28;20390;-71
2021/05/12 12:16:39;;;;;;;16.00;10.83;;;15.80;99.90;;;;;;5051524;28;20398;-71
2021/05/12 12:19:11;;;;;;;15.90;10.10;;;15.70;99.90;;;;;;5049463;28;20435;-70
2021/05/12 12:21:41;;;;;;;12.43;9.37;;;15.80;99.90;;;;;;5050829;28;20441;-72
2021/05/12 12:24:12;;;;;;;11.80;8.50;;;15.70;99.90;;;;;;5050559;28;20448;-72
2021/05/12 12:26:44;;;;;;;12.23;10.20;;;15.70;99.90;;;;;;5037309;28;20944;-70
2021/05/12 12:29:13;;;;;;;15.13;10.17;;;15.60;99.90;;;;;;5029831;28;20434;-72
2021/05/12 12:31:45;;;;;;;12.93;8.93;;;15.50;99.90;;;;;;5029930;28;20406;-71
2021/05/12 12:34:20;;;;;;;17.80;10.23;;;15.70;99.90;;;;;;5029992;28;20440;-73
2021/05/12 12:37:03;;;;;;;14.50;10.13;;;15.70;99.90;;;;;;5032093;28;20420;-70
2021/05/12 12:39:50;;;;;;;17.53;10.43;;;15.50;99.90;;;;;;5029927;28;20419;-71
2021/05/12 12:42:23;;;;;;;14.33;9.43;;;15.50;99.90;;;;;;5031267;28;20454;-71
2021/05/12 12:44:52;;;;;;;13.30;8.87;;;15.60;99.90;;;;;;5030143;28;20437;-75
2021/05/12 12:47:22;;;;;;;13.17;8.97;;;15.70;99.90;;;;;;5025162;28;20515;-70
2021/05/12 12:49:55;;;;;;;17.77;8.87;;;15.60;99.90;;;;;;5026243;28;20455;-72
2021/05/12 12:52:25;;;;;;;10.83;9.73;;;15.60;99.90;;;;;;5037143;28;20497;-70
2021/05/12 12:54:59;;;;;;;15.83;8.43;;;15.50;99.90;;;;;;5029783;28;20398;-70
2021/05/12 12:57:38;;;;;;;14.13;9.00;;;15.40;99.90;;;;;;5021419;28;20479;-71
2021/05/12 13:00:14;;;;;;;9.93;8.93;;;15.40;99.90;;;;;;5009743;28;21125;-71
2021/05/12 13:03:00;;;;;;;12.40;8.30;;;15.40;99.90;;;;;;5008585;28;20461;-71
2021/05/12 13:05:35;;;;;;;11.77;7.10;;;15.40;99.90;;;;;;5010087;28;20869;-70
2021/05/12 13:08:23;;;;;;;9.40;8.27;;;15.60;99.90;;;;;;5010990;28;20431;-71